sensor_id;sensor_type;location;lat;lon;timestamp;P1;durP1;ratioP1;P2;durP2;ratioP2
12871;SDS011;6504;53.766;9.626;2023-02-12T00:01:06;4.07;;;2.60;;
12871;SDS011;6504;53.766;9.626;2023-02-12T00:03:35;4.00;;;2.47;;
12871;SDS011;6504;53.766;9.626;2023-02-12T00:06:03;6.57;;;4.20;;
12871;SDS011;6504;53.766;9.626;2023-02-12T00:08:33;9.93;;;5.43;;
12871;SDS011;6504;53.766;9.626;2023-02-12T00:11:05;12.63;;;7.33;;
12871;SDS011;6504;53.766;9.626;2023-02-12T00:13:35;10.17;;;6.90;;
12871;SDS011;6504;53.766;9.626;2023-02-12T00:16:04;11.60;;;7.67;;
12871;SDS011;6504;53.766;9.626;2023-02-12T00:18:33;12.97;;;7.37;;
12871;SDS011;6504;53.766;9.626;2023-02-12T00:21:01;9.73;;;7.10;;
12871;SDS011;6504;53.766;9.626;2023-02-12T00:23:30;14.03;;;8.10;;
12871;SDS011;6504;53.766;9.626;2023-02-12T00:25:59;10.33;;;7.07;;
12871;SDS011;6504;53.766;9.626;2023-02-12T00:28:30;11.77;;;7.63;;
12871;SDS011;6504;53.766;9.626;2023-02-12T00:31:03;12.23;;;7.40;;
12871;SDS011;6504;53.766;9.626;2023-02-12T00:33:32;10.17;;;6.50;;
12871;SDS011;6504;53.766;9.626;2023-02-12T00:36:00;7.33;;;4.50;;
12871;SDS011;6504;53.766;9.626;2023-02-12T00:38:28;5.77;;;3.90;;
12871;SDS011;6504;53.766;9.626;2023-02-12T00:40:56;4.13;;;2.80;;
12871;SDS011;6504;53.766;9.626;2023-02-12T00:43:25;4.23;;;2.67;;
12871;SDS011;6504;53.766;9.626;2023-02-12T00:45:53;4.53;;;2.50;;
12871;SDS011;6504;53.766;9.626;2023-02-12T00:48:22;3.73;;;2.43;;
12871;SDS011;6504;53.766;9.626;2023-02-12T00:50:50;2.90;;;2.20;;
12871;SDS011;6504;53.766;9.626;2023-02-12T00:53:18;3.07;;;2.10;;
12871;SDS011;6504;53.766;9.626;2023-02-12T00:55:46;2.87;;;1.90;;
12871;SDS011;6504;53.766;9.626;2023-02-12T00:58:14;3.83;;;2.03;;
12871;SDS011;6504;53.766;9.626;2023-02-12T01:00:45;2.40;;;1.70;;
12871;SDS011;6504;53.766;9.626;2023-02-12T01:03:13;2.40;;;2.10;;
12871;SDS011;6504;53.766;9.626;2023-02-12T01:05:41;2.73;;;1.90;;
12871;SDS011;6504;53.766;9.626;2023-02-12T01:08:10;2.97;;;1.67;;
12871;SDS011;6504;53.766;9.626;2023-02-12T01:10:39;2.73;;;1.90;;
12871;SDS011;6504;53.766;9.626;2023-02-12T01:13:08;3.87;;;1.70;;
12871;SDS011;6504;53.766;9.626;2023-02-12T01:15:39;2.90;;;1.60;;
12871;SDS011;6504;53.766;9.626;2023-02-12T01:18:08;3.67;;;2.03;;
12871;SDS011;6504;53.766;9.626;2023-02-12T01:20:38;3.53;;;1.90;;
12871;SDS011;6504;53.766;9.626;2023-02-12T01:23:06;3.07;;;1.37;;
12871;SDS011;6504;53.766;9.626;2023-02-12T01:25:34;2.87;;;1.73;;
12871;SDS011;6504;53.766;9.626;2023-02-12T01:28:04;2.87;;;1.90;;
12871;SDS011;6504;53.766;9.626;2023-02-12T01:30:32;2.60;;;1.60;;
12871;SDS011;6504;53.766;9.626;2023-02-12T01:33:00;3.03;;;1.73;;
12871;SDS011;6504;53.766;9.626;2023-02-12T01:35:29;2.80;;;1.90;;
12871;SDS011;6504;53.766;9.626;2023-02-12T01:37:57;2.30;;;1.70;;
12871;SDS011;6504;53.766;9.626;2023-02-12T01:40:25;2.97;;;2.10;;
12871;SDS011;6504;53.766;9.626;2023-02-12T01:42:53;3.73;;;1.47;;
12871;SDS011;6504;53.766;9.626;2023-02-12T01:45:41;2.67;;;1.93;;
12871;SDS011;6504;53.766;9.626;2023-02-12T01:48:16;6.90;;;2.80;;
12871;SDS011;6504;53.766;9.626;2023-02-12T01:50:46;3.87;;;2.47;;
12871;SDS011;6504;53.766;9.626;2023-02-12T01:53:16;5.50;;;3.33;;
12871;SDS011;6504;53.766;9.626;2023-02-12T01:55:46;5.77;;;3.87;;
12871;SDS011;6504;53.766;9.626;2023-02-12T01:58:16;5.83;;;3.00;;
12871;SDS011;6504;53.766;9.626;2023-02-12T02:00:44;3.57;;;2.30;;
12871;SDS011;6504;53.766;9.626;2023-02-12T02:03:13;4.40;;;2.27;;
12871;SDS011;6504;53.766;9.626;2023-02-12T02:05:42;4.40;;;2.30;;
12871;SDS011;6504;53.766;9.626;2023-02-12T02:08:18;3.90;;;2.20;;
12871;SDS011;6504;53.766;9.626;2023-02-12T02:10:46;4.47;;;3.07;;
12871;SDS011;6504;53.766;9.626;2023-02-12T02:13:14;7.60;;;4.17;;
12871;SDS011;6504;53.766;9.626;2023-02-12T02:16:02;5.87;;;3.67;;
12871;SDS011;6504;53.766;9.626;2023-02-12T02:18:36;9.17;;;4.73;;
12871;SDS011;6504;53.766;9.626;2023-02-12T02:24:32;9.57;;;5.30;;
12871;SDS011;6504;53.766;9.626;2023-02-12T02:27:15;10.80;;;5.37;;
12871;SDS011;6504;53.766;9.626;2023-02-12T02:32:43;13.37;;;6.07;;
12871;SDS011;6504;53.766;9.626;2023-02-12T02:35:20;13.60;;;6.30;;
12871;SDS011;6504;53.766;9.626;2023-02-12T02:37:56;13.40;;;6.43;;
12871;SDS011;6504;53.766;9.626;2023-02-12T02:40:34;11.70;;;6.27;;
12871;SDS011;6504;53.766;9.626;2023-02-12T02:43:08;14.87;;;6.90;;
12871;SDS011;6504;53.766;9.626;2023-02-12T02:45:47;15.23;;;6.20;;
12871;SDS011;6504;53.766;9.626;2023-02-12T02:48:21;12.80;;;6.57;;
12871;SDS011;6504;53.766;9.626;2023-02-12T02:50:55;12.57;;;6.07;;
12871;SDS011;6504;53.766;9.626;2023-02-12T02:53:29;12.57;;;7.03;;
12871;SDS011;6504;53.766;9.626;2023-02-12T02:56:00;16.60;;;7.53;;
12871;SDS011;6504;53.766;9.626;2023-02-12T02:58:34;15.13;;;6.30;;
12871;SDS011;6504;53.766;9.626;2023-02-12T03:01:12;12.67;;;6.83;;
12871;SDS011;6504;53.766;9.626;2023-02-12T03:03:47;11.97;;;6.60;;
12871;SDS011;6504;53.766;9.626;2023-02-12T03:06:21;11.33;;;6.70;;
12871;SDS011;6504;53.766;9.626;2023-02-12T03:08:56;12.77;;;7.07;;
12871;SDS011;6504;53.766;9.626;2023-02-12T03:11:29;14.10;;;7.17;;
12871;SDS011;6504;53.766;9.626;2023-02-12T03:14:01;15.27;;;7.93;;
12871;SDS011;6504;53.766;9.626;2023-02-12T03:16:35;13.23;;;6.73;;
12871;SDS011;6504;53.766;9.626;2023-02-12T03:19:10;16.37;;;7.37;;
12871;SDS011;6504;53.766;9.626;2023-02-12T03:21:43;14.53;;;7.53;;
12871;SDS011;6504;53.766;9.626;2023-02-12T03:24:15;13.40;;;7.33;;
12871;SDS011;6504;53.766;9.626;2023-02-12T03:26:48;16.10;;;7.57;;
12871;SDS011;6504;53.766;9.626;2023-02-12T03:29:20;15.60;;;7.63;;
12871;SDS011;6504;53.766;9.626;2023-02-12T03:31:55;13.57;;;7.73;;
12871;SDS011;6504;53.766;9.626;2023-02-12T03:34:33;15.23;;;7.97;;
12871;SDS011;6504;53.766;9.626;2023-02-12T03:37:10;15.23;;;9.23;;
12871;SDS011;6504;53.766;9.626;2023-02-12T03:39:44;17.70;;;9.77;;
12871;SDS011;6504;53.766;9.626;2023-02-12T03:42:17;19.37;;;10.47;;
12871;SDS011;6504;53.766;9.626;2023-02-12T03:44:52;19.30;;;10.07;;
12871;SDS011;6504;53.766;9.626;2023-02-12T03:47:24;18.77;;;10.90;;
12871;SDS011;6504;53.766;9.626;2023-02-12T03:50:02;16.00;;;10.60;;
12871;SDS011;6504;53.766;9.626;2023-02-12T03:52:36;16.63;;;10.43;;
12871;SDS011;6504;53.766;9.626;2023-02-12T03:55:05;15.07;;;10.53;;
12871;SDS011;6504;53.766;9.626;2023-02-12T03:57:36;16.53;;;11.50;;
12871;SDS011;6504;53.766;9.626;2023-02-12T04:00:08;16.97;;;10.70;;
12871;SDS011;6504;53.766;9.626;2023-02-12T04:02:38;16.43;;;11.80;;
12871;SDS011;6504;53.766;9.626;2023-02-12T04:05:14;17.40;;;12.20;;
12871;SDS011;6504;53.766;9.626;2023-02-12T04:07:44;15.10;;;11.63;;
12871;SDS011;6504;53.766;9.626;2023-02-12T04:10:12;14.80;;;11.10;;
12871;SDS011;6504;53.766;9.626;2023-02-12T04:12:42;16.50;;;10.77;;
12871;SDS011;6504;53.766;9.626;2023-02-12T04:18:11;14.10;;;10.10;;
12871;SDS011;6504;53.766;9.626;2023-02-12T04:20:50;15.90;;;10.17;;
12871;SDS011;6504;53.766;9.626;2023-02-12T04:23:29;17.90;;;10.70;;
12871;SDS011;6504;53.766;9.626;2023-02-12T04:26:10;13.93;;;10.03;;
12871;SDS011;6504;53.766;9.626;2023-02-12T04:28:50;16.57;;;9.83;;
12871;SDS011;6504;53.766;9.626;2023-02-12T04:31:31;13.43;;;8.93;;
12871;SDS011;6504;53.766;9.626;2023-02-12T04:34:07;15.40;;;9.73;;
12871;SDS011;6504;53.766;9.626;2023-02-12T04:36:43;15.80;;;9.77;;
12871;SDS011;6504;53.766;9.626;2023-02-12T04:39:16;16.77;;;10.13;;
12871;SDS011;6504;53.766;9.626;2023-02-12T04:41:48;17.03;;;10.30;;
12871;SDS011;6504;53.766;9.626;2023-02-12T04:44:17;16.20;;;10.20;;
12871;SDS011;6504;53.766;9.626;2023-02-12T04:46:48;16.57;;;9.77;;
12871;SDS011;6504;53.766;9.626;2023-02-12T04:49:17;16.77;;;9.60;;
12871;SDS011;6504;53.766;9.626;2023-02-12T04:51:48;16.97;;;10.53;;
12871;SDS011;6504;53.766;9.626;2023-02-12T04:54:17;20.10;;;10.20;;
12871;SDS011;6504;53.766;9.626;2023-02-12T04:56:46;18.80;;;11.70;;
12871;SDS011;6504;53.766;9.626;2023-02-12T04:59:15;21.57;;;11.90;;
12871;SDS011;6504;53.766;9.626;2023-02-12T05:01:43;19.77;;;11.47;;
12871;SDS011;6504;53.766;9.626;2023-02-12T05:04:12;23.47;;;11.73;;
12871;SDS011;6504;53.766;9.626;2023-02-12T05:06:42;19.97;;;11.23;;
12871;SDS011;6504;53.766;9.626;2023-02-12T05:09:14;22.27;;;11.30;;
12871;SDS011;6504;53.766;9.626;2023-02-12T05:11:43;25.13;;;11.73;;
12871;SDS011;6504;53.766;9.626;2023-02-12T05:14:12;24.07;;;11.53;;
12871;SDS011;6504;53.766;9.626;2023-02-12T05:16:40;22.03;;;11.17;;
12871;SDS011;6504;53.766;9.626;2023-02-12T05:19:08;23.67;;;11.67;;
12871;SDS011;6504;53.766;9.626;2023-02-12T05:21:36;25.37;;;11.03;;
12871;SDS011;6504;53.766;9.626;2023-02-12T05:24:05;27.67;;;11.57;;
12871;SDS011;6504;53.766;9.626;2023-02-12T05:26:35;27.83;;;12.60;;
12871;SDS011;6504;53.766;9.626;2023-02-12T05:29:03;24.00;;;11.83;;
12871;SDS011;6504;53.766;9.626;2023-02-12T05:31:31;21.47;;;11.10;;
12871;SDS011;6504;53.766;9.626;2023-02-12T05:33:59;27.23;;;13.00;;
12871;SDS011;6504;53.766;9.626;2023-02-12T05:36:28;21.33;;;11.80;;
12871;SDS011;6504;53.766;9.626;2023-02-12T05:38:56;26.50;;;13.10;;
12871;SDS011;6504;53.766;9.626;2023-02-12T05:41:25;28.47;;;14.73;;
12871;SDS011;6504;53.766;9.626;2023-02-12T05:43:55;27.00;;;12.77;;
12871;SDS011;6504;53.766;9.626;2023-02-12T05:46:23;29.57;;;14.10;;
12871;SDS011;6504;53.766;9.626;2023-02-12T05:48:51;25.83;;;12.70;;
12871;SDS011;6504;53.766;9.626;2023-02-12T05:51:20;28.87;;;13.90;;
12871;SDS011;6504;53.766;9.626;2023-02-12T05:53:50;32.13;;;15.00;;
12871;SDS011;6504;53.766;9.626;2023-02-12T05:56:20;29.43;;;14.70;;
12871;SDS011;6504;53.766;9.626;2023-02-12T05:58:51;23.77;;;13.23;;
12871;SDS011;6504;53.766;9.626;2023-02-12T06:01:23;30.47;;;14.70;;
12871;SDS011;6504;53.766;9.626;2023-02-12T06:03:53;28.93;;;15.13;;
12871;SDS011;6504;53.766;9.626;2023-02-12T06:06:23;29.57;;;14.47;;
12871;SDS011;6504;53.766;9.626;2023-02-12T06:08:52;30.03;;;14.20;;
12871;SDS011;6504;53.766;9.626;2023-02-12T06:11:20;33.47;;;14.67;;
12871;SDS011;6504;53.766;9.626;2023-02-12T06:13:48;31.50;;;15.20;;
12871;SDS011;6504;53.766;9.626;2023-02-12T06:16:18;40.10;;;18.37;;
12871;SDS011;6504;53.766;9.626;2023-02-12T06:18:48;28.80;;;15.40;;
12871;SDS011;6504;53.766;9.626;2023-02-12T06:21:17;37.40;;;17.37;;
12871;SDS011;6504;53.766;9.626;2023-02-12T06:23:46;33.13;;;15.73;;
12871;SDS011;6504;53.766;9.626;2023-02-12T06:26:15;37.87;;;18.00;;
12871;SDS011;6504;53.766;9.626;2023-02-12T06:28:43;37.13;;;19.50;;
12871;SDS011;6504;53.766;9.626;2023-02-12T06:31:16;33.73;;;17.23;;
12871;SDS011;6504;53.766;9.626;2023-02-12T06:33:45;43.73;;;18.07;;
12871;SDS011;6504;53.766;9.626;2023-02-12T06:36:15;35.50;;;17.80;;
12871;SDS011;6504;53.766;9.626;2023-02-12T06:38:43;37.07;;;18.10;;
12871;SDS011;6504;53.766;9.626;2023-02-12T06:41:11;37.63;;;17.27;;
12871;SDS011;6504;53.766;9.626;2023-02-12T06:43:40;41.93;;;18.10;;
12871;SDS011;6504;53.766;9.626;2023-02-12T06:46:08;38.03;;;18.40;;
12871;SDS011;6504;53.766;9.626;2023-02-12T06:48:37;41.73;;;18.77;;
12871;SDS011;6504;53.766;9.626;2023-02-12T06:51:07;36.17;;;17.80;;
12871;SDS011;6504;53.766;9.626;2023-02-12T06:53:37;35.43;;;15.90;;
12871;SDS011;6504;53.766;9.626;2023-02-12T06:56:06;36.17;;;17.00;;
12871;SDS011;6504;53.766;9.626;2023-02-12T06:58:36;35.10;;;15.63;;
12871;SDS011;6504;53.766;9.626;2023-02-12T07:01:09;27.83;;;14.50;;
12871;SDS011;6504;53.766;9.626;2023-02-12T07:03:40;38.07;;;15.73;;
12871;SDS011;6504;53.766;9.626;2023-02-12T07:06:10;34.43;;;15.00;;
12871;SDS011;6504;53.766;9.626;2023-02-12T07:08:39;32.17;;;16.33;;
12871;SDS011;6504;53.766;9.626;2023-02-12T07:11:07;39.07;;;16.07;;
12871;SDS011;6504;53.766;9.626;2023-02-12T07:13:35;32.47;;;14.47;;
12871;SDS011;6504;53.766;9.626;2023-02-12T07:16:04;37.40;;;16.57;;
12871;SDS011;6504;53.766;9.626;2023-02-12T07:18:33;37.40;;;17.00;;
12871;SDS011;6504;53.766;9.626;2023-02-12T07:21:01;33.07;;;17.00;;
12871;SDS011;6504;53.766;9.626;2023-02-12T07:23:33;30.20;;;16.73;;
12871;SDS011;6504;53.766;9.626;2023-02-12T07:26:02;30.23;;;15.03;;
12871;SDS011;6504;53.766;9.626;2023-02-12T07:28:32;28.17;;;16.07;;
12871;SDS011;6504;53.766;9.626;2023-02-12T07:31:05;31.73;;;15.83;;
12871;SDS011;6504;53.766;9.626;2023-02-12T07:33:34;28.57;;;16.43;;
12871;SDS011;6504;53.766;9.626;2023-02-12T07:36:04;32.17;;;17.73;;
12871;SDS011;6504;53.766;9.626;2023-02-12T07:38:35;31.60;;;16.73;;
12871;SDS011;6504;53.766;9.626;2023-02-12T07:41:05;29.57;;;16.17;;
12871;SDS011;6504;53.766;9.626;2023-02-12T07:43:36;34.80;;;17.30;;
12871;SDS011;6504;53.766;9.626;2023-02-12T07:46:05;30.93;;;16.27;;
12871;SDS011;6504;53.766;9.626;2023-02-12T07:48:37;34.23;;;15.80;;
12871;SDS011;6504;53.766;9.626;2023-02-12T07:51:06;30.10;;;15.07;;
12871;SDS011;6504;53.766;9.626;2023-02-12T07:53:37;29.03;;;15.47;;
12871;SDS011;6504;53.766;9.626;2023-02-12T07:56:09;29.30;;;14.50;;
12871;SDS011;6504;53.766;9.626;2023-02-12T07:58:38;29.13;;;15.37;;
12871;SDS011;6504;53.766;9.626;2023-02-12T08:01:11;32.37;;;14.80;;
12871;SDS011;6504;53.766;9.626;2023-02-12T08:03:40;25.37;;;13.50;;
12871;SDS011;6504;53.766;9.626;2023-02-12T08:06:10;28.10;;;14.47;;
12871;SDS011;6504;53.766;9.626;2023-02-12T08:08:40;26.03;;;14.07;;
12871;SDS011;6504;53.766;9.626;2023-02-12T08:11:09;26.20;;;13.03;;
12871;SDS011;6504;53.766;9.626;2023-02-12T08:13:38;24.57;;;13.23;;
12871;SDS011;6504;53.766;9.626;2023-02-12T08:16:07;24.30;;;12.97;;
12871;SDS011;6504;53.766;9.626;2023-02-12T08:18:38;20.43;;;12.20;;
12871;SDS011;6504;53.766;9.626;2023-02-12T08:21:07;23.30;;;12.87;;
12871;SDS011;6504;53.766;9.626;2023-02-12T08:23:36;27.27;;;14.00;;
12871;SDS011;6504;53.766;9.626;2023-02-12T08:26:07;18.03;;;12.07;;
12871;SDS011;6504;53.766;9.626;2023-02-12T08:28:37;21.70;;;12.30;;
12871;SDS011;6504;53.766;9.626;2023-02-12T08:31:08;22.43;;;11.93;;
12871;SDS011;6504;53.766;9.626;2023-02-12T08:33:37;22.37;;;11.73;;
12871;SDS011;6504;53.766;9.626;2023-02-12T08:36:06;22.90;;;11.90;;
12871;SDS011;6504;53.766;9.626;2023-02-12T08:38:36;21.80;;;12.57;;
12871;SDS011;6504;53.766;9.626;2023-02-12T08:41:08;18.60;;;10.70;;
12871;SDS011;6504;53.766;9.626;2023-02-12T08:43:37;23.60;;;12.13;;
12871;SDS011;6504;53.766;9.626;2023-02-12T08:46:07;24.13;;;13.17;;
12871;SDS011;6504;53.766;9.626;2023-02-12T08:48:37;23.83;;;13.07;;
12871;SDS011;6504;53.766;9.626;2023-02-12T08:51:06;24.67;;;13.40;;
12871;SDS011;6504;53.766;9.626;2023-02-12T08:53:36;21.90;;;12.57;;
12871;SDS011;6504;53.766;9.626;2023-02-12T08:56:06;27.50;;;14.33;;
12871;SDS011;6504;53.766;9.626;2023-02-12T08:58:36;26.03;;;13.77;;
12871;SDS011;6504;53.766;9.626;2023-02-12T09:01:05;26.80;;;13.40;;
12871;SDS011;6504;53.766;9.626;2023-02-12T09:03:37;29.40;;;13.97;;
12871;SDS011;6504;53.766;9.626;2023-02-12T09:06:06;24.70;;;13.30;;
12871;SDS011;6504;53.766;9.626;2023-02-12T09:08:35;25.77;;;13.53;;
12871;SDS011;6504;53.766;9.626;2023-02-12T09:11:04;27.90;;;13.77;;
12871;SDS011;6504;53.766;9.626;2023-02-12T09:13:35;26.83;;;12.97;;
12871;SDS011;6504;53.766;9.626;2023-02-12T09:16:03;23.83;;;12.90;;
12871;SDS011;6504;53.766;9.626;2023-02-12T09:18:32;25.40;;;13.03;;
12871;SDS011;6504;53.766;9.626;2023-02-12T09:21:01;23.93;;;12.17;;
12871;SDS011;6504;53.766;9.626;2023-02-12T09:23:30;29.40;;;14.13;;
12871;SDS011;6504;53.766;9.626;2023-02-12T09:25:58;30.17;;;14.10;;
12871;SDS011;6504;53.766;9.626;2023-02-12T09:28:26;28.87;;;13.83;;
12871;SDS011;6504;53.766;9.626;2023-02-12T09:30:56;31.90;;;16.20;;
12871;SDS011;6504;53.766;9.626;2023-02-12T09:33:24;27.37;;;14.93;;
12871;SDS011;6504;53.766;9.626;2023-02-12T09:35:52;30.97;;;15.10;;
12871;SDS011;6504;53.766;9.626;2023-02-12T09:38:20;27.17;;;13.80;;
12871;SDS011;6504;53.766;9.626;2023-02-12T09:40:50;31.83;;;16.63;;
12871;SDS011;6504;53.766;9.626;2023-02-12T09:43:32;27.67;;;15.67;;
12871;SDS011;6504;53.766;9.626;2023-02-12T09:46:09;26.20;;;14.63;;
12871;SDS011;6504;53.766;9.626;2023-02-12T09:48:49;29.00;;;15.93;;
12871;SDS011;6504;53.766;9.626;2023-02-12T09:51:24;27.37;;;13.77;;
12871;SDS011;6504;53.766;9.626;2023-02-12T09:54:00;25.67;;;13.63;;
12871;SDS011;6504;53.766;9.626;2023-02-12T09:56:32;28.40;;;17.00;;
12871;SDS011;6504;53.766;9.626;2023-02-12T09:59:03;34.00;;;20.13;;
12871;SDS011;6504;53.766;9.626;2023-02-12T10:01:33;30.10;;;17.70;;
12871;SDS011;6504;53.766;9.626;2023-02-12T10:04:02;27.80;;;14.93;;
12871;SDS011;6504;53.766;9.626;2023-02-12T10:06:34;26.87;;;13.53;;
12871;SDS011;6504;53.766;9.626;2023-02-12T10:09:08;26.43;;;13.80;;
12871;SDS011;6504;53.766;9.626;2023-02-12T10:11:49;22.23;;;12.70;;
12871;SDS011;6504;53.766;9.626;2023-02-12T10:14:37;21.67;;;13.17;;
12871;SDS011;6504;53.766;9.626;2023-02-12T10:17:21;21.23;;;12.73;;
12871;SDS011;6504;53.766;9.626;2023-02-12T10:20:08;22.53;;;11.60;;
12871;SDS011;6504;53.766;9.626;2023-02-12T10:23:08;18.33;;;9.93;;
12871;SDS011;6504;53.766;9.626;2023-02-12T10:25:47;15.10;;;9.20;;
12871;SDS011;6504;53.766;9.626;2023-02-12T10:28:20;13.77;;;8.40;;
12871;SDS011;6504;53.766;9.626;2023-02-12T10:30:53;17.03;;;9.37;;
12871;SDS011;6504;53.766;9.626;2023-02-12T10:33:26;14.67;;;8.30;;
12871;SDS011;6504;53.766;9.626;2023-02-12T10:35:58;12.83;;;7.90;;
12871;SDS011;6504;53.766;9.626;2023-02-12T10:38:32;13.93;;;7.80;;
12871;SDS011;6504;53.766;9.626;2023-02-12T10:41:04;13.73;;;7.30;;
12871;SDS011;6504;53.766;9.626;2023-02-12T10:43:32;9.90;;;6.50;;
12871;SDS011;6504;53.766;9.626;2023-02-12T10:46:00;9.50;;;6.07;;
12871;SDS011;6504;53.766;9.626;2023-02-12T10:48:30;8.90;;;5.90;;
12871;SDS011;6504;53.766;9.626;2023-02-12T10:51:08;9.07;;;5.93;;
12871;SDS011;6504;53.766;9.626;2023-02-12T10:53:47;7.00;;;5.03;;
12871;SDS011;6504;53.766;9.626;2023-02-12T10:56:15;7.07;;;4.70;;
12871;SDS011;6504;53.766;9.626;2023-02-12T10:58:50;6.73;;;4.73;;
12871;SDS011;6504;53.766;9.626;2023-02-12T11:01:22;6.37;;;3.97;;
12871;SDS011;6504;53.766;9.626;2023-02-12T11:03:54;7.40;;;4.70;;
12871;SDS011;6504;53.766;9.626;2023-02-12T11:06:24;5.60;;;3.97;;
12871;SDS011;6504;53.766;9.626;2023-02-12T11:08:54;6.10;;;4.33;;
12871;SDS011;6504;53.766;9.626;2023-02-12T11:11:23;5.30;;;3.50;;
12871;SDS011;6504;53.766;9.626;2023-02-12T11:13:56;5.67;;;3.50;;
12871;SDS011;6504;53.766;9.626;2023-02-12T11:16:26;4.57;;;3.20;;
12871;SDS011;6504;53.766;9.626;2023-02-12T11:18:58;5.73;;;3.63;;
12871;SDS011;6504;53.766;9.626;2023-02-12T11:21:28;4.33;;;2.97;;
12871;SDS011;6504;53.766;9.626;2023-02-12T11:23:56;4.57;;;3.37;;
12871;SDS011;6504;53.766;9.626;2023-02-12T11:26:44;5.33;;;3.23;;
12871;SDS011;6504;53.766;9.626;2023-02-12T11:29:17;4.53;;;3.17;;
12871;SDS011;6504;53.766;9.626;2023-02-12T11:31:58;4.17;;;2.57;;
12871;SDS011;6504;53.766;9.626;2023-02-12T11:34:28;3.87;;;2.47;;
12871;SDS011;6504;53.766;9.626;2023-02-12T11:36:56;3.50;;;2.30;;
12871;SDS011;6504;53.766;9.626;2023-02-12T11:39:26;2.60;;;2.10;;
12871;SDS011;6504;53.766;9.626;2023-02-12T11:41:58;2.63;;;2.30;;
12871;SDS011;6504;53.766;9.626;2023-02-12T11:44:31;2.50;;;2.03;;
12871;SDS011;6504;53.766;9.626;2023-02-12T11:47:03;4.80;;;2.47;;
12871;SDS011;6504;53.766;9.626;2023-02-12T11:49:38;3.47;;;2.53;;
12871;SDS011;6504;53.766;9.626;2023-02-12T11:52:15;6.60;;;3.17;;
12871;SDS011;6504;53.766;9.626;2023-02-12T11:54:47;5.33;;;3.33;;
12871;SDS011;6504;53.766;9.626;2023-02-12T11:57:34;4.77;;;3.33;;
12871;SDS011;6504;53.766;9.626;2023-02-12T12:00:04;7.87;;;4.33;;
12871;SDS011;6504;53.766;9.626;2023-02-12T12:02:39;8.50;;;5.70;;
12871;SDS011;6504;53.766;9.626;2023-02-12T12:05:14;8.53;;;6.00;;
12871;SDS011;6504;53.766;9.626;2023-02-12T12:07:46;7.73;;;5.30;;
12871;SDS011;6504;53.766;9.626;2023-02-12T12:10:19;8.43;;;5.97;;
12871;SDS011;6504;53.766;9.626;2023-02-12T12:13:01;8.43;;;5.20;;
12871;SDS011;6504;53.766;9.626;2023-02-12T12:15:33;6.83;;;4.83;;
12871;SDS011;6504;53.766;9.626;2023-02-12T12:18:23;6.10;;;4.07;;
12871;SDS011;6504;53.766;9.626;2023-02-12T12:21:15;7.73;;;4.60;;
12871;SDS011;6504;53.766;9.626;2023-02-12T12:23:50;6.73;;;4.60;;
12871;SDS011;6504;53.766;9.626;2023-02-12T12:26:22;6.43;;;4.27;;
12871;SDS011;6504;53.766;9.626;2023-02-12T12:28:54;4.50;;;3.60;;
12871;SDS011;6504;53.766;9.626;2023-02-12T12:31:28;5.30;;;3.57;;
12871;SDS011;6504;53.766;9.626;2023-02-12T12:34:02;4.83;;;4.03;;
12871;SDS011;6504;53.766;9.626;2023-02-12T12:39:38;4.73;;;3.67;;
12871;SDS011;6504;53.766;9.626;2023-02-12T12:42:21;5.37;;;3.93;;
12871;SDS011;6504;53.766;9.626;2023-02-12T12:45:31;4.70;;;3.40;;
12871;SDS011;6504;53.766;9.626;2023-02-12T12:48:12;4.47;;;3.20;;
12871;SDS011;6504;53.766;9.626;2023-02-12T12:50:55;5.23;;;4.73;;
12871;SDS011;6504;53.766;9.626;2023-02-12T12:53:36;4.10;;;3.70;;
12871;SDS011;6504;53.766;9.626;2023-02-12T12:56:20;3.10;;;2.80;;
12871;SDS011;6504;53.766;9.626;2023-02-12T12:59:04;4.57;;;4.17;;
12871;SDS011;6504;53.766;9.626;2023-02-12T13:01:49;4.60;;;4.20;;
12871;SDS011;6504;53.766;9.626;2023-02-12T13:04:54;3.90;;;3.50;;
12871;SDS011;6504;53.766;9.626;2023-02-12T13:07:41;4.23;;;3.83;;
12871;SDS011;6504;53.766;9.626;2023-02-12T13:10:21;5.80;;;5.27;;
12871;SDS011;6504;53.766;9.626;2023-02-12T13:13:01;5.30;;;4.80;;
12871;SDS011;6504;53.766;9.626;2023-02-12T13:15:41;4.10;;;3.70;;
12871;SDS011;6504;53.766;9.626;2023-02-12T13:18:16;4.07;;;3.67;;
12871;SDS011;6504;53.766;9.626;2023-02-12T13:20:55;3.50;;;3.20;;
12871;SDS011;6504;53.766;9.626;2023-02-12T13:23:33;4.30;;;4.00;;
12871;SDS011;6504;53.766;9.626;2023-02-12T13:26:08;5.17;;;4.67;;
12871;SDS011;6504;53.766;9.626;2023-02-12T13:28:43;5.10;;;4.60;;
12871;SDS011;6504;53.766;9.626;2023-02-12T13:31:16;5.63;;;5.13;;
12871;SDS011;6504;53.766;9.626;2023-02-12T13:34:03;3.93;;;3.63;;
12871;SDS011;6504;53.766;9.626;2023-02-12T13:36:34;3.07;;;2.87;;
12871;SDS011;6504;53.766;9.626;2023-02-12T13:39:05;3.60;;;3.30;;
12871;SDS011;6504;53.766;9.626;2023-02-12T13:41:42;3.73;;;3.53;;
12871;SDS011;6504;53.766;9.626;2023-02-12T13:44:15;3.50;;;3.30;;
12871;SDS011;6504;53.766;9.626;2023-02-12T13:46:54;4.20;;;3.90;;
12871;SDS011;6504;53.766;9.626;2023-02-12T13:49:29;4.53;;;3.50;;
12871;SDS011;6504;53.766;9.626;2023-02-12T13:52:09;4.70;;;4.30;;
12871;SDS011;6504;53.766;9.626;2023-02-12T13:54:45;7.50;;;6.80;;
12871;SDS011;6504;53.766;9.626;2023-02-12T13:57:18;8.23;;;7.43;;
12871;SDS011;6504;53.766;9.626;2023-02-12T13:59:49;8.93;;;8.13;;
12871;SDS011;6504;53.766;9.626;2023-02-12T14:05:18;8.27;;;7.37;;
12871;SDS011;6504;53.766;9.626;2023-02-12T14:07:50;7.77;;;7.07;;
12871;SDS011;6504;53.766;9.626;2023-02-12T14:10:21;11.43;;;10.37;;
12871;SDS011;6504;53.766;9.626;2023-02-12T14:12:55;8.63;;;7.73;;
12871;SDS011;6504;53.766;9.626;2023-02-12T14:15:37;9.67;;;7.77;;
12871;SDS011;6504;53.766;9.626;2023-02-12T14:18:32;9.13;;;8.23;;
12871;SDS011;6504;53.766;9.626;2023-02-12T14:27:31;13.50;;;12.20;;
12871;SDS011;6504;53.766;9.626;2023-02-12T14:32:57;11.37;;;10.27;;
12871;SDS011;6504;53.766;9.626;2023-02-12T14:35:43;11.80;;;9.40;;
12871;SDS011;6504;53.766;9.626;2023-02-12T14:41:28;10.10;;;8.43;;
12871;SDS011;6504;53.766;9.626;2023-02-12T14:50:22;10.53;;;7.83;;
12871;SDS011;6504;53.766;9.626;2023-02-12T14:52:58;8.80;;;7.87;;
12871;SDS011;6504;53.766;9.626;2023-02-12T14:55:31;10.13;;;7.90;;
12871;SDS011;6504;53.766;9.626;2023-02-12T14:58:02;12.07;;;8.97;;
12871;SDS011;6504;53.766;9.626;2023-02-12T15:00:35;14.73;;;9.50;;
12871;SDS011;6504;53.766;9.626;2023-02-12T15:03:12;10.40;;;7.90;;
12871;SDS011;6504;53.766;9.626;2023-02-12T15:05:50;13.10;;;10.38;;
12871;SDS011;6504;53.766;9.626;2023-02-12T15:08:27;20.08;;;11.48;;
12871;SDS011;6504;53.766;9.626;2023-02-12T15:11:02;18.30;;;11.68;;
12871;SDS011;6504;53.766;9.626;2023-02-12T15:13:44;20.83;;;10.30;;
12871;SDS011;6504;53.766;9.626;2023-02-12T15:16:17;21.83;;;11.30;;
12871;SDS011;6504;53.766;9.626;2023-02-12T15:18:54;11.25;;;8.85;;
12871;SDS011;6504;53.766;9.626;2023-02-12T15:21:28;9.40;;;7.20;;
12871;SDS011;6504;53.766;9.626;2023-02-12T15:24:00;14.65;;;9.95;;
12871;SDS011;6504;53.766;9.626;2023-02-12T15:26:32;15.27;;;10.07;;
12871;SDS011;6504;53.766;9.626;2023-02-12T15:29:05;20.63;;;9.27;;
12871;SDS011;6504;53.766;9.626;2023-02-12T15:31:34;10.33;;;7.70;;
12871;SDS011;6504;53.766;9.626;2023-02-12T15:34:02;10.33;;;7.37;;
12871;SDS011;6504;53.766;9.626;2023-02-12T15:36:33;8.43;;;6.73;;
12871;SDS011;6504;53.766;9.626;2023-02-12T15:39:03;8.67;;;7.77;;
12871;SDS011;6504;53.766;9.626;2023-02-12T15:41:35;9.60;;;7.03;;
12871;SDS011;6504;53.766;9.626;2023-02-12T15:44:17;9.67;;;7.80;;
12871;SDS011;6504;53.766;9.626;2023-02-12T15:46:57;9.57;;;7.37;;
12871;SDS011;6504;53.766;9.626;2023-02-12T15:49:30;8.10;;;6.97;;
12871;SDS011;6504;53.766;9.626;2023-02-12T15:52:01;9.77;;;7.80;;
12871;SDS011;6504;53.766;9.626;2023-02-12T15:54:32;9.07;;;7.33;;